Time;durP1;ratioP1;P1;durP2;ratioP2;P2;SDS_P1;SDS_P2;PMS_P1;PMS_P2;Temp;Humidity;BMP_temperature;BMP_pressure;BME280_temperature;BME280_humidity;BME280_pressure;Samples;Min_cycle;Max_cycle;Signal;HPM_P1;HPM_P2
2022/04/07 00:01:53;;;;;;;7.20;2.83;;;11.20;99.90;;;;;;5083925;28;20380;-83
2022/04/07 00:04:37;;;;;;;2.00;1.90;;;11.10;99.90;;;;;;5083489;28;20431;-82
2022/04/07 00:07:22;;;;;;;2.65;2.20;;;10.90;99.90;;;;;;5083096;28;20425;-83
2022/04/07 00:10:07;;;;;;;3.50;2.83;;;10.90;99.90;;;;;;5081985;28;20280;-84
2022/04/07 00:12:51;;;;;;;2.43;2.23;;;10.80;99.90;;;;;;5063067;28;20393;-83
2022/04/07 00:15:36;;;;;;;1.90;1.80;;;10.80;99.90;;;;;;5064000;28;20378;-83
2022/04/07 00:18:20;;;;;;;2.03;1.87;;;10.80;99.90;;;;;;5063230;28;20401;-83
2022/04/07 00:21:11;;;;;;;1.80;1.70;;;10.80;99.90;;;;;;5063142;28;20409;-83
2022/04/07 00:23:56;;;;;;;2.60;2.10;;;10.70;99.90;;;;;;5063097;28;20473;-81
2022/04/07 00:26:40;;;;;;;5.27;2.50;;;10.80;99.90;;;;;;5063429;28;20382;-83
2022/04/07 00:29:25;;;;;;;3.13;1.60;;;10.80;99.90;;;;;;5064203;28;20894;-82
2022/04/07 00:32:10;;;;;;;2.40;1.63;;;10.90;99.90;;;;;;5063102;28;20915;-82
2022/04/07 00:34:56;;;;;;;3.50;1.60;;;10.60;99.90;;;;;;5063964;28;20385;-83
2022/04/07 00:37:41;;;;;;;3.33;2.27;;;10.50;99.90;;;;;;5064287;28;20406;-83
2022/04/07 00:40:25;;;;;;;1.80;1.70;;;10.70;99.90;;;;;;5063386;28;20945;-82
2022/04/07 00:43:28;;;;;;;4.30;2.93;;;10.50;99.90;;;;;;5063081;28;20478;-82
2022/04/07 00:46:12;;;;;;;1.73;1.63;;;10.50;99.90;;;;;;5063282;28;20894;-82
2022/04/07 00:48:57;;;;;;;2.67;1.90;;;10.40;99.90;;;;;;5063324;28;20440;-82
2022/04/07 00:51:43;;;;;;;2.90;1.70;;;10.20;99.90;;;;;;5063587;28;20385;-82
2022/04/07 00:55:06;;;;;;;2.53;2.00;;;10.30;99.90;;;;;;5065563;28;20382;-83
2022/04/07 00:57:51;;;;;;;8.60;2.23;;;10.30;99.90;;;;;;5053389;28;20390;-82
2022/04/07 01:00:36;;;;;;;3.87;1.70;;;10.30;99.90;;;;;;5063123;28;20398;-82
2022/04/07 01:03:20;;;;;;;1.87;1.73;;;10.30;99.90;;;;;;5063152;28;20390;-83
2022/04/07 01:06:05;;;;;;;2.43;2.23;;;10.30;99.90;;;;;;5063870;28;20383;-82
2022/04/07 01:08:50;;;;;;;2.60;2.20;;;10.30;99.90;;;;;;5062512;28;20461;-82
2022/04/07 01:11:35;;;;;;;2.60;2.30;;;10.30;99.90;;;;;;5075924;28;20475;-82
2022/04/07 01:14:20;;;;;;;3.03;2.83;;;10.20;99.90;;;;;;5083082;28;20377;-82
2022/04/07 01:17:04;;;;;;;5.53;2.63;;;10.20;99.90;;;;;;5082896;28;20465;-83
2022/04/07 01:19:48;;;;;;;2.10;1.90;;;10.20;99.90;;;;;;5082193;28;20474;-82
2022/04/07 01:22:39;;;;;;;2.90;2.43;;;10.10;99.90;;;;;;5082999;28;20940;-82
2022/04/07 01:25:27;;;;;;;5.10;3.10;;;10.20;99.90;;;;;;5082449;28;20480;-82
2022/04/07 01:28:11;;;;;;;2.27;2.13;;;10.10;99.90;;;;;;5067649;28;20513;-82
2022/04/07 01:30:55;;;;;;;2.77;2.13;;;10.00;99.90;;;;;;5082656;28;20388;-83
2022/04/07 01:33:41;;;;;;;3.97;2.30;;;10.00;99.90;;;;;;5081773;28;20420;-82
2022/04/07 01:36:29;;;;;;;6.57;2.33;;;10.00;99.90;;;;;;5082378;28;20461;-82
2022/04/07 01:39:18;;;;;;;3.77;1.90;;;10.00;99.90;;;;;;5081873;28;20434;-82
2022/04/07 01:42:03;;;;;;;1.70;1.50;;;10.20;99.90;;;;;;5082345;28;20780;-82
2022/04/07 01:44:52;;;;;;;1.93;1.50;;;10.10;99.90;;;;;;5081922;28;20428;-82
2022/04/07 01:47:39;;;;;;;2.17;2.07;;;10.00;99.90;;;;;;5072049;28;20433;-81
2022/04/07 01:50:26;;;;;;;4.17;2.27;;;10.00;99.90;;;;;;5084527;28;20377;-81
2022/04/07 01:53:12;;;;;;;2.03;1.87;;;10.10;99.90;;;;;;5082405;28;20389;-82
2022/04/07 01:55:56;;;;;;;2.30;1.93;;;10.00;99.90;;;;;;5082256;28;20933;-82
2022/04/07 01:58:41;;;;;;;2.20;2.00;;;9.90;99.90;;;;;;5082094;28;20397;-82
2022/04/07 02:01:26;;;;;;;1.73;1.63;;;9.90;99.90;;;;;;5082299;28;20400;-82
2022/04/07 02:04:11;;;;;;;2.03;1.73;;;9.90;99.90;;;;;;5066447;28;20385;-82
2022/04/07 02:06:56;;;;;;;1.97;1.77;;;10.00;99.90;;;;;;5067219;28;20385;-82
2022/04/07 02:09:40;;;;;;;2.30;2.00;;;10.00;99.90;;;;;;5085437;28;20448;-82
2022/04/07 02:12:27;;;;;;;2.30;2.10;;;9.90;99.90;;;;;;5065435;28;20545;-82
2022/04/07 02:15:12;;;;;;;2.17;1.97;;;9.90;99.90;;;;;;5065752;28;20378;-79
2022/04/07 02:17:57;;;;;;;1.80;1.70;;;9.90;99.90;;;;;;5065832;28;20394;-83
2022/04/07 02:20:42;;;;;;;2.40;1.97;;;9.90;99.90;;;;;;5064739;28;20390;-83
2022/04/07 02:23:27;;;;;;;2.00;1.90;;;10.00;99.90;;;;;;5058506;28;20401;-82
2022/04/07 02:26:13;;;;;;;2.20;1.87;;;10.00;99.90;;;;;;5064775;28;20450;-84
2022/04/07 02:28:59;;;;;;;2.50;2.40;;;10.10;99.90;;;;;;5069333;28;20453;-80
2022/04/07 02:31:43;;;;;;;2.10;1.90;;;10.10;99.90;;;;;;5072184;28;20409;-79
2022/04/07 02:34:28;;;;;;;1.80;1.70;;;10.20;99.90;;;;;;5067148;28;20394;-82
2022/04/07 02:37:12;;;;;;;1.70;1.60;;;10.30;99.90;;;;;;5065884;28;20390;-82
2022/04/07 02:39:57;;;;;;;1.83;1.73;;;10.30;99.90;;;;;;5065736;28;20389;-82
2022/04/07 02:42:42;;;;;;;2.73;2.17;;;10.30;99.90;;;;;;5065554;28;20738;-82
2022/04/07 02:45:26;;;;;;;2.53;2.33;;;10.20;99.90;;;;;;5065445;28;20489;-82
2022/04/07 02:48:11;;;;;;;2.63;2.43;;;10.10;99.90;;;;;;5064383;28;20445;-82
2022/04/07 02:50:56;;;;;;;2.03;1.93;;;10.20;99.90;;;;;;5066305;28;20429;-83
2022/04/07 02:53:40;;;;;;;2.63;2.43;;;10.10;99.90;;;;;;5065401;28;20390;-83
2022/04/07 02:56:26;;;;;;;2.37;2.17;;;10.10;99.90;;;;;;5064979;28;20498;-84
2022/04/07 02:59:11;;;;;;;3.43;3.13;;;10.10;99.90;;;;;;5040880;28;20429;-82
2022/04/07 03:01:57;;;;;;;3.60;3.30;;;10.10;99.90;;;;;;5069269;28;20464;-82
2022/04/07 03:04:41;;;;;;;4.83;3.33;;;9.90;99.90;;;;;;5069375;28;20386;-83
2022/04/07 03:07:26;;;;;;;3.33;2.53;;;9.90;99.90;;;;;;5061919;28;20486;-83
2022/04/07 03:10:12;;;;;;;3.47;3.17;;;9.70;99.90;;;;;;5070527;28;20747;-82
2022/04/07 03:12:57;;;;;;;3.30;2.40;;;9.70;99.90;;;;;;5090195;28;20374;-81
2022/04/07 03:15:42;;;;;;;2.93;2.73;;;9.80;99.90;;;;;;5089260;28;20476;-82
2022/04/07 03:18:27;;;;;;;4.30;3.00;;;9.80;99.90;;;;;;5081454;28;20384;-82
2022/04/07 03:21:12;;;;;;;2.37;2.20;;;10.00;99.90;;;;;;5087821;28;20388;-83
2022/04/07 03:23:56;;;;;;;2.33;2.13;;;9.90;99.90;;;;;;5090568;28;20869;-80
2022/04/07 03:26:41;;;;;;;2.57;2.37;;;9.80;99.90;;;;;;5088630;28;20420;-79
2022/04/07 03:29:27;;;;;;;2.43;2.23;;;9.90;99.90;;;;;;5074296;28;20432;-79
2022/04/07 03:32:12;;;;;;;2.30;2.10;;;9.80;99.90;;;;;;5090147;28;20393;-82
2022/04/07 03:34:57;;;;;;;4.37;3.47;;;9.90;99.90;;;;;;5090487;28;20396;-83
2022/04/07 03:37:42;;;;;;;3.03;2.13;;;9.90;99.90;;;;;;5088352;28;20432;-83
2022/04/07 03:40:26;;;;;;;2.80;2.53;;;10.00;99.90;;;;;;5084004;28;20392;-82
2022/04/07 03:43:11;;;;;;;3.90;2.50;;;9.70;99.90;;;;;;5089103;28;20535;-82
2022/04/07 03:45:56;;;;;;;3.57;2.70;;;9.70;99.90;;;;;;5088614;28;20417;-81
2022/04/07 03:48:40;;;;;;;2.53;1.87;;;9.60;99.90;;;;;;5082216;28;20440;-82
2022/04/07 03:51:24;;;;;;;2.47;2.00;;;9.60;99.90;;;;;;5071346;28;20389;-83
2022/04/07 03:54:09;;;;;;;2.50;2.30;;;9.60;99.90;;;;;;5089204;28;20408;-80
2022/04/07 03:56:53;;;;;;;2.33;1.73;;;9.60;99.90;;;;;;5060326;28;20435;-80
2022/04/07 03:59:39;;;;;;;2.30;2.17;;;9.50;99.90;;;;;;5085602;28;20412;-82
2022/04/07 04:02:24;;;;;;;2.27;2.07;;;9.50;99.90;;;;;;5091647;28;20389;-80
2022/04/07 04:05:08;;;;;;;2.30;2.10;;;9.60;99.90;;;;;;5089834;28;20401;-80
2022/04/07 04:07:53;;;;;;;3.17;1.90;;;9.70;99.90;;;;;;5091569;28;20449;-78
2022/04/07 04:10:37;;;;;;;4.40;3.00;;;9.60;99.90;;;;;;5091411;28;20484;-80
2022/04/07 04:13:22;;;;;;;3.63;2.33;;;9.70;99.90;;;;;;5092359;28;20954;-80
2022/04/07 04:16:08;;;;;;;2.37;2.10;;;9.50;99.90;;;;;;5095883;28;20412;-82
2022/04/07 04:18:53;;;;;;;2.00;1.90;;;9.60;99.90;;;;;;5074636;28;20401;-80
2022/04/07 04:21:37;;;;;;;4.63;2.30;;;9.60;99.90;;;;;;5089054;28;20443;-79
2022/04/07 04:24:22;;;;;;;3.03;1.93;;;9.60;99.90;;;;;;5089871;28;20513;-81
2022/04/07 04:27:07;;;;;;;3.27;2.37;;;9.70;99.90;;;;;;5045809;28;20456;-80
2022/04/07 04:29:52;;;;;;;1.97;1.73;;;9.60;99.90;;;;;;5092507;28;20412;-82
2022/04/07 04:32:36;;;;;;;5.13;2.03;;;9.70;99.90;;;;;;5095148;28;20372;-79
2022/04/07 04:35:21;;;;;;;2.10;1.90;;;9.70;99.90;;;;;;5080832;28;20372;-79
2022/04/07 04:38:06;;;;;;;1.87;1.70;;;9.80;99.90;;;;;;5093629;28;20409;-79
2022/04/07 04:40:50;;;;;;;2.23;2.03;;;9.80;99.90;;;;;;5068652;28;20403;-82
2022/04/07 04:43:35;;;;;;;3.07;2.47;;;9.80;99.90;;;;;;5097826;28;20393;-79
2022/04/07 04:46:20;;;;;;;3.10;1.90;;;9.90;99.90;;;;;;5097589;28;20389;-83
2022/04/07 04:49:05;;;;;;;1.90;1.80;;;9.90;99.90;;;;;;5096774;28;20456;-80
2022/04/07 04:51:50;;;;;;;5.33;1.50;;;9.90;99.90;;;;;;5097459;28;20409;-80
2022/04/07 04:54:35;;;;;;;1.57;1.47;;;9.90;99.90;;;;;;5097132;28;20388;-79
2022/04/07 04:57:20;;;;;;;1.50;1.40;;;9.90;99.90;;;;;;5096899;28;20430;-78
2022/04/07 05:00:06;;;;;;;2.90;1.77;;;9.90;99.90;;;;;;5081834;28;20397;-79
2022/04/07 05:02:51;;;;;;;1.53;1.20;;;10.10;99.90;;;;;;5083207;28;20437;-81
2022/04/07 05:05:36;;;;;;;1.77;1.20;;;10.00;99.90;;;;;;5069464;28;20398;-79
2022/04/07 05:08:21;;;;;;;4.23;1.40;;;10.00;99.90;;;;;;5052939;28;20461;-79
2022/04/07 05:11:07;;;;;;;2.00;1.20;;;9.90;99.90;;;;;;5051235;28;20481;-79
2022/04/07 05:13:52;;;;;;;1.60;1.43;;;9.90;99.90;;;;;;5088285;28;20481;-78
2022/04/07 05:16:37;;;;;;;1.20;1.10;;;9.80;99.90;;;;;;5080961;28;20405;-78
2022/04/07 05:19:26;;;;;;;1.97;1.33;;;9.80;99.90;;;;;;5083355;28;20458;-79
2022/04/07 05:22:12;;;;;;;1.93;1.30;;;9.70;99.90;;;;;;5088985;28;20442;-79
2022/04/07 05:24:56;;;;;;;2.80;1.40;;;9.70;99.90;;;;;;5066677;28;20421;-80
2022/04/07 05:27:45;;;;;;;1.43;1.33;;;9.60;99.90;;;;;;5083482;28;20457;-83
2022/04/07 05:30:29;;;;;;;1.30;1.07;;;9.70;99.90;;;;;;5056835;28;20486;-82
2022/04/07 05:33:15;;;;;;;1.53;1.40;;;9.70;99.90;;;;;;5074251;28;20408;-83
2022/04/07 05:35:59;;;;;;;1.40;1.30;;;9.70;99.90;;;;;;5076902;28;20409;-83
2022/04/07 05:38:43;;;;;;;1.30;1.20;;;9.70;99.90;;;;;;5087227;28;20405;-84
2022/04/07 05:41:28;;;;;;;1.30;1.20;;;9.80;99.90;;;;;;5091406;28;20470;-81
2022/04/07 05:44:13;;;;;;;1.60;1.50;;;9.80;99.90;;;;;;5083534;28;20401;-84
2022/04/07 05:47:00;;;;;;;1.60;1.43;;;9.70;99.90;;;;;;5077217;28;20448;-84
2022/04/07 05:49:44;;;;;;;1.50;1.40;;;9.90;99.90;;;;;;5077277;28;20466;-80
2022/04/07 05:52:29;;;;;;;1.47;1.37;;;9.80;99.90;;;;;;5084661;28;20485;-82
2022/04/07 05:55:13;;;;;;;1.57;1.20;;;9.70;99.90;;;;;;5092518;28;20478;-83
2022/04/07 05:58:02;;;;;;;1.40;1.30;;;9.70;99.90;;;;;;5088522;28;20523;-83
2022/04/07 06:00:48;;;;;;;3.77;1.30;;;9.70;99.90;;;;;;5091629;28;20513;-80
2022/04/07 06:03:33;;;;;;;1.30;1.10;;;9.60;99.90;;;;;;5081876;28;20416;-80
2022/04/07 06:06:17;;;;;;;1.50;1.40;;;9.60;99.90;;;;;;5078379;28;20433;-83
2022/04/07 06:09:03;;;;;;;1.30;1.20;;;9.80;99.90;;;;;;5093780;28;20525;-82
2022/04/07 06:11:48;;;;;;;1.40;1.30;;;9.80;99.90;;;;;;5086592;28;20480;-79
2022/04/07 06:14:33;;;;;;;1.23;1.10;;;9.70;99.90;;;;;;5096056;28;20419;-82
2022/04/07 06:17:18;;;;;;;1.17;1.07;;;9.70;99.90;;;;;;5077982;28;20474;-83
2022/04/07 06:20:03;;;;;;;1.50;1.40;;;9.70;99.90;;;;;;5099432;28;20440;-83
2022/04/07 06:22:47;;;;;;;6.60;2.37;;;9.80;99.90;;;;;;5067577;28;20606;-82
2022/04/07 06:25:32;;;;;;;2.33;1.30;;;9.80;99.90;;;;;;5087877;28;20396;-81
2022/04/07 06:28:22;;;;;;;1.43;1.33;;;10.00;99.90;;;;;;5091112;28;20525;-84
2022/04/07 06:31:06;;;;;;;1.50;1.40;;;10.10;99.90;;;;;;5096870;28;20456;-84
2022/04/07 06:33:50;;;;;;;1.30;1.20;;;10.40;99.90;;;;;;5096893;28;20421;-80
2022/04/07 06:36:35;;;;;;;1.60;1.50;;;10.40;99.90;;;;;;5085513;28;20397;-82
2022/04/07 06:39:21;;;;;;;1.67;1.30;;;10.30;99.90;;;;;;5087336;28;20483;-80
2022/04/07 06:42:05;;;;;;;1.43;1.33;;;10.40;99.90;;;;;;5092875;28;20475;-82
2022/04/07 06:44:51;;;;;;;1.33;1.23;;;10.30;99.90;;;;;;5067856;28;20448;-83
2022/04/07 06:47:38;;;;;;;1.47;1.37;;;10.10;99.90;;;;;;5087433;28;20456;-82
2022/04/07 06:50:25;;;;;;;1.40;1.30;;;10.10;99.90;;;;;;5087805;28;21566;-83
2022/04/07 06:53:12;;;;;;;1.40;1.30;;;10.00;99.90;;;;;;5092660;28;20421;-80
2022/04/07 06:55:56;;;;;;;2.83;1.80;;;10.10;99.90;;;;;;5087613;28;20301;-83
2022/04/07 06:58:41;;;;;;;1.40;1.30;;;10.00;99.90;;;;;;5089531;28;20469;-83
2022/04/07 07:01:25;;;;;;;1.50;1.40;;;10.10;99.90;;;;;;5076964;28;20440;-82
2022/04/07 07:04:12;;;;;;;1.27;1.17;;;10.10;99.90;;;;;;5088068;28;20436;-82
2022/04/07 07:06:57;;;;;;;1.47;1.37;;;10.10;99.90;;;;;;5044411;28;20480;-80
2022/04/07 07:09:42;;;;;;;2.00;1.40;;;10.20;99.90;;;;;;5074905;28;20445;-79
2022/04/07 07:12:27;;;;;;;1.33;1.23;;;10.20;99.90;;;;;;5095589;28;20470;-80
2022/04/07 07:15:11;;;;;;;4.03;1.43;;;10.20;99.90;;;;;;5086949;28;20481;-82
2022/04/07 07:17:57;;;;;;;1.20;1.10;;;10.20;99.90;;;;;;5093566;28;20393;-83
2022/04/07 07:20:42;;;;;;;1.40;1.30;;;10.30;99.90;;;;;;5086851;28;20427;-80
2022/04/07 07:23:26;;;;;;;3.67;1.37;;;10.50;99.90;;;;;;5076010;28;20429;-82
2022/04/07 07:26:13;;;;;;;1.20;1.10;;;10.50;99.90;;;;;;5094850;28;20443;-80
2022/04/07 07:28:57;;;;;;;2.07;1.57;;;10.70;99.90;;;;;;5071887;28;20469;-84
2022/04/07 07:31:42;;;;;;;1.47;1.37;;;10.60;99.90;;;;;;5075596;28;20495;-84
2022/04/07 07:34:27;;;;;;;1.70;1.13;;;10.70;99.90;;;;;;5078260;28;20419;-83
2022/04/07 07:37:11;;;;;;;1.97;1.10;;;10.90;99.90;;;;;;5073337;28;20440;-80
2022/04/07 07:39:56;;;;;;;1.43;1.33;;;10.90;99.90;;;;;;5087856;28;20435;-80
2022/04/07 07:42:42;;;;;;;1.57;1.40;;;10.90;99.90;;;;;;5071093;28;21044;-82
2022/04/07 07:45:29;;;;;;;1.30;1.20;;;10.90;99.90;;;;;;5072928;28;20432;-81
2022/04/07 07:48:13;;;;;;;1.27;1.17;;;11.00;99.90;;;;;;5072452;28;20500;-81
2022/04/07 07:50:58;;;;;;;1.20;1.10;;;11.00;99.90;;;;;;5086736;28;20429;-81
2022/04/07 07:53:45;;;;;;;2.90;1.30;;;11.20;99.90;;;;;;5090306;28;20459;-82
2022/04/07 07:56:30;;;;;;;4.87;1.70;;;11.30;99.90;;;;;;5061952;28;20935;-83
2022/04/07 07:59:15;;;;;;;1.87;1.77;;;11.30;99.90;;;;;;5074642;28;20448;-82
2022/04/07 08:02:00;;;;;;;3.67;1.33;;;11.30;99.90;;;;;;5075567;28;20429;-84
2022/04/07 08:04:46;;;;;;;2.70;1.60;;;11.30;99.90;;;;;;5089309;28;20437;-82
2022/04/07 08:07:30;;;;;;;1.83;1.60;;;11.20;99.90;;;;;;5069907;28;20487;-82
2022/04/07 08:10:16;;;;;;;1.47;1.37;;;11.30;99.90;;;;;;5071786;28;20517;-82
2022/04/07 08:13:00;;;;;;;1.47;1.37;;;11.30;99.90;;;;;;5082325;28;20440;-84
2022/04/07 08:15:45;;;;;;;1.30;1.20;;;11.30;99.90;;;;;;5061296;28;20782;-82
2022/04/07 08:18:29;;;;;;;5.10;1.30;;;11.30;99.90;;;;;;5080110;28;20423;-81
2022/04/07 08:21:14;;;;;;;6.07;1.57;;;11.30;99.90;;;;;;5079517;28;20437;-83
2022/04/07 08:23:59;;;;;;;1.37;1.13;;;11.30;99.90;;;;;;5086816;28;20448;-85
2022/04/07 08:26:43;;;;;;;1.20;1.10;;;11.30;99.90;;;;;;5067931;28;20424;-84
2022/04/07 08:29:28;;;;;;;1.53;1.17;;;11.20;99.90;;;;;;5085340;28;20573;-84
2022/04/07 08:32:13;;;;;;;1.30;1.20;;;11.40;99.90;;;;;;5071555;28;20417;-84
2022/04/07 08:34:58;;;;;;;1.07;1.00;;;11.40;99.90;;;;;;5087838;28;20472;-80
2022/04/07 08:37:42;;;;;;;1.20;1.10;;;11.40;99.90;;;;;;5092518;28;20566;-83
2022/04/07 08:40:28;;;;;;;1.30;1.20;;;11.30;99.90;;;;;;5086186;28;20483;-83
2022/04/07 08:43:13;;;;;;;2.22;1.20;;;11.20;99.90;;;;;;5089264;28;20508;-84
2022/04/07 08:45:58;;;;;;;1.47;1.37;;;11.10;99.90;;;;;;5096923;28;20852;-82
2022/04/07 08:48:43;;;;;;;1.33;1.23;;;10.90;99.90;;;;;;5083057;28;20527;-79
2022/04/07 08:51:28;;;;;;;2.20;1.50;;;11.00;99.90;;;;;;5068097;28;20432;-80
2022/04/07 08:54:14;;;;;;;4.00;1.47;;;10.90;99.90;;;;;;5066044;28;20486;-81
2022/04/07 08:56:58;;;;;;;1.20;1.10;;;10.90;99.90;;;;;;5049335;28;20532;-84
2022/04/07 08:59:43;;;;;;;1.53;1.40;;;11.00;99.90;;;;;;5065417;28;20437;-83
2022/04/07 09:02:27;;;;;;;1.23;1.13;;;11.00;99.90;;;;;;5055669;28;20518;-82
2022/04/07 09:05:12;;;;;;;1.30;1.20;;;11.20;99.90;;;;;;5047831;28;20470;-83
2022/04/07 09:07:57;;;;;;;1.73;1.20;;;11.30;99.90;;;;;;5044534;28;20530;-84
2022/04/07 09:10:42;;;;;;;2.23;1.40;;;11.30;99.90;;;;;;5047468;28;20457;-79
2022/04/07 09:13:39;;;;;;;1.50;1.40;;;11.30;99.90;;;;;;5057785;28;20538;-83
2022/04/07 09:16:25;;;;;;;1.20;1.10;;;11.30;99.90;;;;;;5061167;28;20422;-82
2022/04/07 09:19:10;;;;;;;1.37;1.27;;;11.20;99.90;;;;;;5060289;28;20492;-81
2022/04/07 09:22:12;;;;;;;1.20;1.10;;;11.30;99.90;;;;;;5058416;28;20471;-83
2022/04/07 09:25:05;;;;;;;1.30;1.10;;;11.30;99.90;;;;;;5097633;28;20507;-80
2022/04/07 09:27:49;;;;;;;1.20;1.10;;;11.30;99.90;;;;;;5074175;28;20507;-82
2022/04/07 09:30:37;;;;;;;1.20;1.10;;;11.30;99.90;;;;;;5087024;28;20496;-81
2022/04/07 09:33:23;;;;;;;1.10;1.00;;;11.40;99.90;;;;;;5082008;28;20425;-84
2022/04/07 09:36:10;;;;;;;1.30;1.20;;;11.40;99.90;;;;;;5089558;28;20439;-83
2022/04/07 09:38:55;;;;;;;1.20;1.10;;;11.40;99.90;;;;;;5092733;28;20431;-83
2022/04/07 09:41:40;;;;;;;1.17;1.07;;;11.60;99.90;;;;;;5070999;28;20428;-84
2022/04/07 09:44:26;;;;;;;1.20;1.10;;;11.60;99.90;;;;;;5087234;28;20435;-83
2022/04/07 09:47:11;;;;;;;1.33;1.20;;;11.80;99.90;;;;;;5088414;28;20590;-83
2022/04/07 09:49:58;;;;;;;1.03;0.93;;;11.70;99.90;;;;;;5067187;28;20441;-81
2022/04/07 09:52:55;;;;;;;0.90;0.90;;;11.60;99.90;;;;;;5082276;28;20432;-83
2022/04/07 09:55:41;;;;;;;1.40;1.20;;;11.60;99.90;;;;;;5089699;28;20456;-81
2022/04/07 09:58:27;;;;;;;2.00;1.23;;;11.60;99.90;;;;;;5073622;28;20448;-81
2022/04/07 10:01:12;;;;;;;1.10;1.00;;;11.60;99.90;;;;;;5061591;28;20468;-81
2022/04/07 10:03:58;;;;;;;1.23;1.13;;;11.70;99.90;;;;;;5070644;28;20432;-82
2022/04/07 10:06:43;;;;;;;1.30;1.20;;;11.60;99.90;;;;;;5056957;28;20533;-81
2022/04/07 10:09:28;;;;;;;2.90;1.30;;;11.70;99.90;;;;;;5059963;28;20537;-80
2022/04/07 10:12:12;;;;;;;1.20;1.10;;;11.80;99.90;;;;;;5054686;28;20475;-82
2022/04/07 10:14:59;;;;;;;2.20;1.03;;;11.80;99.90;;;;;;5068445;28;20547;-82
2022/04/07 10:17:45;;;;;;;1.27;1.17;;;11.90;99.90;;;;;;5048129;28;20465;-82
2022/04/07 10:20:33;;;;;;;3.20;1.00;;;12.10;99.90;;;;;;5053292;28;20995;-81
2022/04/07 10:23:46;;;;;;;2.00;1.10;;;12.00;99.90;;;;;;5024851;28;20434;-80
2022/04/07 10:26:31;;;;;;;1.10;1.00;;;12.00;99.90;;;;;;5038549;28;20457;-82
2022/04/07 10:29:21;;;;;;;1.20;1.10;;;12.10;99.90;;;;;;5021559;28;20445;-81
2022/04/07 10:32:18;;;;;;;1.97;1.27;;;12.00;99.90;;;;;;5047848;28;20441;-81
2022/04/07 10:35:03;;;;;;;1.13;1.00;;;11.90;99.90;;;;;;5045761;28;21025;-82
2022/04/07 10:37:49;;;;;;;1.33;1.10;;;12.00;99.90;;;;;;5031579;28;20530;-81
2022/04/07 10:40:56;;;;;;;1.10;1.00;;;11.90;99.90;;;;;;5046702;28;20440;-81
2022/04/07 10:43:40;;;;;;;1.10;1.00;;;12.00;99.90;;;;;;5037198;28;20466;-82
2022/04/07 10:46:25;;;;;;;2.70;1.30;;;12.10;99.90;;;;;;5049972;28;20476;-81
2022/04/07 10:49:11;;;;;;;2.20;1.20;;;12.20;99.90;;;;;;5067518;28;20459;-81
2022/04/07 10:52:02;;;;;;;1.40;1.30;;;12.30;99.90;;;;;;5078562;28;20473;-80
2022/04/07 10:55:10;;;;;;;1.10;1.00;;;12.30;99.90;;;;;;5057224;28;20968;-82
2022/04/07 10:58:14;;;;;;;1.40;1.30;;;12.30;99.90;;;;;;5070580;28;21014;-82
2022/04/07 11:00:58;;;;;;;1.03;0.97;;;12.40;99.90;;;;;;5072486;28;20428;-82
2022/04/07 11:04:19;;;;;;;1.33;1.23;;;12.50;99.90;;;;;;5045658;28;20964;-80
2022/04/07 11:07:14;;;;;;;2.80;1.10;;;12.50;99.90;;;;;;5073507;28;20432;-81
2022/04/07 11:10:05;;;;;;;1.20;1.10;;;12.50;99.90;;;;;;5056284;28;20456;-82
2022/04/07 11:13:05;;;;;;;5.30;1.47;;;12.60;99.90;;;;;;5061474;28;20445;-80
2022/04/07 11:15:56;;;;;;;1.37;1.27;;;12.70;99.90;;;;;;5089761;28;20420;-81
2022/04/07 11:18:58;;;;;;;1.03;0.97;;;12.70;99.90;;;;;;5074234;28;20445;-81
2022/04/07 11:21:48;;;;;;;1.20;1.10;;;12.70;99.90;;;;;;5058242;28;20432;-80
2022/04/07 11:24:39;;;;;;;2.73;1.33;;;12.70;99.90;;;;;;5071631;28;20491;-81
2022/04/07 11:27:39;;;;;;;1.27;1.17;;;12.80;99.90;;;;;;5062776;28;20464;-80
2022/04/07 11:30:37;;;;;;;1.10;1.00;;;12.80;99.90;;;;;;5057359;28;20427;-80
2022/04/07 11:33:38;;;;;;;1.30;1.20;;;12.80;99.90;;;;;;5074098;28;20503;-81
2022/04/07 11:36:42;;;;;;;1.47;1.00;;;13.00;99.90;;;;;;5046624;28;20577;-80
2022/04/07 11:39:27;;;;;;;1.70;1.10;;;13.00;99.90;;;;;;5059794;28;20443;-82
2022/04/07 11:42:12;;;;;;;1.17;1.07;;;12.70;99.90;;;;;;5073634;28;20481;-81
2022/04/07 11:44:59;;;;;;;3.00;1.10;;;12.80;99.90;;;;;;5075564;28;20452;-81
2022/04/07 11:47:49;;;;;;;1.13;1.03;;;12.80;99.90;;;;;;5055497;28;20527;-82
2022/04/07 11:50:38;;;;;;;1.77;1.53;;;12.90;99.90;;;;;;5056474;28;20476;-81
2022/04/07 11:53:24;;;;;;;1.20;1.10;;;12.90;99.90;;;;;;5076193;28;20433;-82
2022/04/07 11:56:17;;;;;;;1.27;1.17;;;12.70;99.90;;;;;;5070558;28;20503;-81
2022/04/07 11:59:05;;;;;;;1.20;1.10;;;13.00;99.90;;;;;;5071717;28;20460;-82
2022/04/07 12:01:50;;;;;;;1.10;1.00;;;13.00;99.90;;;;;;5066127;28;20434;-80
2022/04/07 12:04:34;;;;;;;1.43;1.03;;;13.00;99.90;;;;;;5076356;28;20451;-82
2022/04/07 12:07:20;;;;;;;1.80;1.20;;;13.30;99.90;;;;;;5048583;28;20634;-82
2022/04/07 12:10:07;;;;;;;1.07;1.00;;;13.10;99.90;;;;;;5085626;28;20507;-82
2022/04/07 12:13:12;;;;;;;1.20;1.07;;;13.30;99.90;;;;;;5083417;28;20444;-83
2022/04/07 12:15:56;;;;;;;1.20;1.10;;;13.40;99.90;;;;;;5079351;28;20451;-83
2022/04/07 12:18:41;;;;;;;2.23;1.20;;;13.30;99.90;;;;;;5069941;28;20584;-82
2022/04/07 12:21:27;;;;;;;1.43;1.10;;;13.40;99.90;;;;;;5076164;28;20740;-82
2022/04/07 12:24:13;;;;;;;2.23;1.20;;;13.60;99.90;;;;;;5058600;28;20419;-83
2022/04/07 12:26:59;;;;;;;1.20;1.10;;;13.80;99.90;;;;;;5068189;28;20484;-83
2022/04/07 12:29:47;;;;;;;0.90;0.90;;;13.90;99.90;;;;;;5081913;28;20511;-79
2022/04/07 12:32:44;;;;;;;1.50;1.17;;;13.80;99.90;;;;;;5082450;28;20429;-83
2022/04/07 12:35:46;;;;;;;1.10;1.00;;;13.80;99.90;;;;;;5079075;28;20485;-79
2022/04/07 12:38:31;;;;;;;2.60;1.20;;;13.70;99.90;;;;;;5082747;28;20439;-84
2022/04/07 12:41:17;;;;;;;1.00;1.00;;;13.50;99.90;;;;;;5074856;28;20516;-81
2022/04/07 12:44:01;;;;;;;1.17;0.90;;;13.60;99.90;;;;;;5072324;28;20451;-84
2022/04/07 12:46:49;;;;;;;1.10;1.00;;;13.60;99.90;;;;;;5063019;28;20859;-83
2022/04/07 12:49:35;;;;;;;1.00;0.90;;;13.60;99.90;;;;;;5079518;28;20440;-83
2022/04/07 12:52:21;;;;;;;1.00;0.90;;;13.70;99.90;;;;;;5065499;28;20417;-82
2022/04/07 12:55:10;;;;;;;1.10;1.00;;;13.70;99.90;;;;;;5055691;28;20447;-81
2022/04/07 12:57:55;;;;;;;2.80;1.20;;;14.00;99.90;;;;;;5080719;28;20797;-80
2022/04/07 13:00:39;;;;;;;1.10;1.00;;;14.30;99.90;;;;;;5057729;28;20534;-82
2022/04/07 13:03:28;;;;;;;1.13;1.00;;;14.40;99.90;;;;;;5074447;28;20789;-81
2022/04/07 13:06:14;;;;;;;1.20;1.10;;;14.20;99.90;;;;;;5063640;28;20431;-80
2022/04/07 13:08:59;;;;;;;3.23;2.60;;;14.10;99.90;;;;;;5068757;28;20486;-81
2022/04/07 13:11:43;;;;;;;1.27;1.17;;;14.10;99.90;;;;;;5086901;28;20468;-81
2022/04/07 13:14:29;;;;;;;1.10;1.00;;;14.10;99.90;;;;;;5082042;28;20443;-81
2022/04/07 13:17:14;;;;;;;1.20;1.10;;;14.20;99.90;;;;;;5090667;28;20427;-80
2022/04/07 13:19:58;;;;;;;1.23;1.00;;;14.00;99.90;;;;;;5076657;28;20830;-81
2022/04/07 13:22:43;;;;;;;1.17;1.07;;;13.90;99.90;;;;;;5100510;28;20435;-79
2022/04/07 13:25:28;;;;;;;1.10;1.00;;;13.80;99.90;;;;;;5085822;28;20448;-81
2022/04/07 13:28:12;;;;;;;18.73;1.77;;;13.80;99.90;;;;;;5066404;28;20489;-80
2022/04/07 13:30:57;;;;;;;0.90;0.90;;;13.80;99.90;;;;;;5095083;28;20419;-81
2022/04/07 13:33:42;;;;;;;1.20;1.10;;;13.80;99.90;;;;;;5066600;28;20399;-81
2022/04/07 13:36:27;;;;;;;1.93;0.90;;;13.80;99.90;;;;;;5080817;28;20853;-82
2022/04/07 13:39:12;;;;;;;1.30;1.20;;;14.00;99.90;;;;;;5073604;28;20404;-82
2022/04/07 13:41:56;;;;;;;1.17;1.07;;;14.00;99.90;;;;;;5082762;28;20535;-82
2022/04/07 13:44:43;;;;;;;1.70;1.07;;;14.00;99.90;;;;;;5088479;28;20427;-82
2022/04/07 13:47:27;;;;;;;1.07;0.97;;;13.90;99.90;;;;;;5069666;28;20542;-81
2022/04/07 13:50:12;;;;;;;1.00;1.00;;;13.90;99.90;;;;;;5057423;28;20517;-80
2022/04/07 13:53:00;;;;;;;0.90;0.90;;;14.00;99.90;;;;;;5044826;28;20502;-82
2022/04/07 13:55:46;;;;;;;1.10;1.00;;;13.90;99.90;;;;;;5036808;28;20820;-82
2022/04/07 13:58:30;;;;;;;1.20;1.00;;;14.10;99.90;;;;;;5021013;28;20461;-81
2022/04/07 14:01:21;;;;;;;1.10;1.00;;;14.20;99.90;;;;;;5032265;28;20449;-80
2022/04/07 14:04:09;;;;;;;1.27;1.10;;;14.30;99.90;;;;;;4996389;28;20467;-80
2022/04/07 14:06:54;;;;;;;1.00;0.90;;;14.40;99.90;;;;;;5030405;28;20470;-82
2022/04/07 14:09:39;;;;;;;3.03;1.10;;;14.50;99.90;;;;;;5049565;28;20436;-82
2022/04/07 14:12:23;;;;;;;1.07;0.97;;;14.70;99.90;;;;;;5020282;28;20517;-81
2022/04/07 14:15:08;;;;;;;2.90;1.30;;;14.70;99.90;;;;;;5024435;28;21038;-81
2022/04/07 14:17:52;;;;;;;1.03;0.97;;;15.10;99.90;;;;;;5011851;28;20454;-82
2022/04/07 14:20:40;;;;;;;1.30;1.10;;;14.70;99.90;;;;;;5031150;28;21094;-81
2022/04/07 14:23:25;;;;;;;1.10;1.00;;;14.60;99.90;;;;;;4997161;28;20443;-81
2022/04/07 14:26:10;;;;;;;1.43;1.20;;;14.40;99.90;;;;;;5021797;28;20435;-82
2022/04/07 14:28:54;;;;;;;4.30;1.40;;;14.40;99.90;;;;;;5012321;28;20473;-80
2022/04/07 14:31:39;;;;;;;0.90;0.90;;;14.50;99.90;;;;;;5024253;28;20455;-81